Buckeye, Arizona
Current Conditions -  °F | °C
As of 6:35 PM on Thursday 18 Dec 2014 (Local Time) from KBXK Reporting Station
Clear Clear  
Wind Chill: 54°   Ceiling: Unl
Heat Index: 54°   Visibility: 10mi
Dew Point: 46°   Wind: 0mph
Humidity: 77%   Direction: NA
Pressure: 30.14"   Gusts: NA
Location:  33.37°N, 112.59°W
Report Text: KBXK 190135Z AUTO 00000KT 10SM CLR 12/08 A3014 RMK AO1
Loading
Personal Weather Stations






























Interactive Weather Map New forecast layout! Learn more

10-Day Weather Forecast

Advertisements
Track Severe Weather on mobile